Time;durP1;ratioP1;P1;durP2;ratioP2;P2;SDS_P1;SDS_P2;PMS_P1;PMS_P2;Temp;Humidity;BMP_temperature;BMP_pressure;BME280_temperature;BME280_humidity;BME280_pressure;Samples;Min_cycle;Max_cycle;Signal;HPM_P1;HPM_P2
2022/01/02 00:02:00;;;;;;;27.17;17.37;;;;;;;;;;5029898;28;20866;-76
2022/01/02 00:04:30;;;;;;;19.63;17.53;;;;;;;;;;5029977;28;20501;-76
2022/01/02 00:07:01;;;;;;;22.67;17.40;;;;;;;;;;5030134;28;20494;-76
2022/01/02 00:09:34;;;;;;;20.87;18.67;;;;;;;;;;5030106;28;20475;-76
2022/01/02 00:12:09;;;;;;;19.37;17.37;;;;;;;;;;5030119;28;20799;-76
2022/01/02 00:14:37;;;;;;;18.93;16.90;;;;;;;;;;5037281;28;20457;-78
2022/01/02 00:17:05;;;;;;;21.17;16.97;;;;;;;;;;5036268;28;20645;-76
2022/01/02 00:19:34;;;;;;;20.33;17.07;;;;;;;;;;5042075;28;20446;-76
2022/01/02 00:22:04;;;;;;;20.37;17.90;;;;;;;;;;5047267;28;20482;-77
2022/01/02 00:24:32;;;;;;;19.43;17.37;;;;;;;;;;5043082;28;20468;-76
2022/01/02 00:27:00;;;;;;;20.93;16.60;;;;;;;;;;5041459;28;20555;-77
2022/01/02 00:29:27;;;;;;;22.27;18.60;;;;;;;;;;5049464;28;20478;-77
2022/01/02 00:31:54;;;;;;;20.53;16.83;;;;;;;;;;5049587;28;20465;-76
2022/01/02 00:34:22;;;;;;;20.10;17.43;;;;;;;;;;5049401;28;20595;-76
2022/01/02 00:36:50;;;;;;;19.00;17.00;;;;;;;;;;5049580;28;20469;-76
2022/01/02 00:39:18;;;;;;;19.80;17.70;;;;;;;;;;5049396;28;20975;-76
2022/01/02 00:41:46;;;;;;;20.10;16.20;;;;;;;;;;5046602;28;20442;-76
2022/01/02 00:44:19;;;;;;;18.07;16.00;;;;;;;;;;5046137;28;20438;-76
2022/01/02 00:46:49;;;;;;;18.77;15.80;;;;;;;;;;5037765;28;20936;-77
2022/01/02 00:49:18;;;;;;;17.57;15.07;;;;;;;;;;5046434;28;21004;-77
2022/01/02 00:51:48;;;;;;;17.93;16.00;;;;;;;;;;5041625;28;20459;-76
2022/01/02 00:54:18;;;;;;;17.60;15.70;;;;;;;;;;5049249;28;20453;-75
2022/01/02 00:56:46;;;;;;;18.80;16.63;;;;;;;;;;5051722;28;20477;-76
2022/01/02 00:59:21;;;;;;;18.27;16.37;;;;;;;;;;5053061;28;20450;-77
2022/01/02 01:01:49;;;;;;;17.93;16.10;;;;;;;;;;5037962;28;20441;-76
2022/01/02 01:04:19;;;;;;;18.37;16.23;;;;;;;;;;5052967;28;20450;-77
2022/01/02 01:06:48;;;;;;;16.50;14.80;;;;;;;;;;5052637;28;20491;-76
2022/01/02 01:09:15;;;;;;;17.50;15.70;;;;;;;;;;5053000;28;20473;-76
2022/01/02 01:11:45;;;;;;;19.93;17.60;;;;;;;;;;5052932;28;20450;-76
2022/01/02 01:14:13;;;;;;;18.40;16.13;;;;;;;;;;5053028;28;20449;-76
2022/01/02 01:16:40;;;;;;;18.00;16.17;;;;;;;;;;5053236;28;20469;-76
2022/01/02 01:19:07;;;;;;;18.60;15.77;;;;;;;;;;5052903;28;20434;-76
2022/01/02 01:21:34;;;;;;;19.03;16.13;;;;;;;;;;5052704;28;20454;-78
2022/01/02 01:24:01;;;;;;;18.07;16.27;;;;;;;;;;5052599;28;20961;-77
2022/01/02 01:26:28;;;;;;;18.07;15.77;;;;;;;;;;5056702;28;20462;-76
2022/01/02 01:28:56;;;;;;;17.13;15.30;;;;;;;;;;5078365;28;20496;-74
2022/01/02 01:31:23;;;;;;;16.27;14.43;;;;;;;;;;5079431;28;20460;-75
2022/01/02 01:33:50;;;;;;;19.33;15.40;;;;;;;;;;5079167;28;20431;-76
2022/01/02 01:36:17;;;;;;;17.47;15.63;;;;;;;;;;5079515;28;20450;-75
2022/01/02 01:38:44;;;;;;;17.10;15.27;;;;;;;;;;5079679;28;20415;-76
2022/01/02 01:41:15;;;;;;;18.20;14.57;;;;;;;;;;5079720;28;20450;-75
2022/01/02 01:43:53;;;;;;;17.73;15.67;;;;;;;;;;5079125;28;20414;-75
2022/01/02 01:46:22;;;;;;;18.43;15.70;;;;;;;;;;5078842;28;20477;-76
2022/01/02 01:48:54;;;;;;;17.57;15.47;;;;;;;;;;5078853;28;20454;-76
2022/01/02 01:51:21;;;;;;;17.80;15.83;;;;;;;;;;5078609;28;20491;-75
2022/01/02 01:53:48;;;;;;;21.07;15.50;;;;;;;;;;5078375;28;20438;-76
2022/01/02 01:56:15;;;;;;;16.37;14.77;;;;;;;;;;5077174;28;20468;-76
2022/01/02 01:58:42;;;;;;;16.73;14.97;;;;;;;;;;5076707;28;20465;-76
2022/01/02 02:01:09;;;;;;;18.60;15.30;;;;;;;;;;5077152;28;20426;-76
2022/01/02 02:03:37;;;;;;;18.43;16.53;;;;;;;;;;5076775;28;20447;-75
2022/01/02 02:06:04;;;;;;;17.17;15.13;;;;;;;;;;5067282;28;20466;-77
2022/01/02 02:08:31;;;;;;;17.70;15.90;;;;;;;;;;5054841;28;20486;-76
2022/01/02 02:10:59;;;;;;;17.43;15.57;;;;;;;;;;5050765;28;20485;-76
2022/01/02 02:13:26;;;;;;;17.80;16.00;;;;;;;;;;5050227;28;20449;-77
2022/01/02 02:15:53;;;;;;;17.10;15.40;;;;;;;;;;5051797;28;20470;-77
2022/01/02 02:18:20;;;;;;;15.73;14.23;;;;;;;;;;5051790;28;20832;-77
2022/01/02 02:20:49;;;;;;;16.87;14.87;;;;;;;;;;5051511;28;20442;-77
2022/01/02 02:23:16;;;;;;;17.63;14.97;;;;;;;;;;5051314;28;20813;-77
2022/01/02 02:25:43;;;;;;;16.83;14.90;;;;;;;;;;5051473;28;20473;-76
2022/01/02 02:28:13;;;;;;;16.90;15.17;;;;;;;;;;5051685;28;20521;-77
2022/01/02 02:30:42;;;;;;;17.27;14.73;;;;;;;;;;5051575;28;20442;-76
2022/01/02 02:33:09;;;;;;;19.50;16.03;;;;;;;;;;5051402;28;21100;-76
2022/01/02 02:35:37;;;;;;;15.80;14.20;;;;;;;;;;5051442;28;20523;-77
2022/01/02 02:38:07;;;;;;;18.53;15.20;;;;;;;;;;5051758;28;20507;-76
2022/01/02 02:40:34;;;;;;;17.40;15.70;;;;;;;;;;5051348;28;20522;-75
2022/01/02 02:43:05;;;;;;;17.67;15.67;;;;;;;;;;5051534;28;20450;-76
2022/01/02 02:51:13;;;;;;;17.40;14.57;;;;;;;;;;5050902;28;20904;-75
2022/01/02 02:53:48;;;;;;;16.87;15.20;;;;;;;;;;5050689;28;20446;-75
2022/01/02 02:56:19;;;;;;;16.43;14.73;;;;;;;;;;5050729;28;20492;-78
2022/01/02 02:58:46;;;;;;;18.90;15.27;;;;;;;;;;5050768;28;20430;-76
2022/01/02 03:01:15;;;;;;;17.50;15.80;;;;;;;;;;5050697;28;20450;-77
2022/01/02 03:03:43;;;;;;;16.97;15.13;;;;;;;;;;5050281;28;20577;-77
2022/01/02 03:06:10;;;;;;;16.30;14.47;;;;;;;;;;5050405;28;20802;-76
2022/01/02 03:08:38;;;;;;;15.30;13.70;;;;;;;;;;5049718;28;20810;-76
2022/01/02 03:11:09;;;;;;;18.13;15.23;;;;;;;;;;5050281;28;20532;-76
2022/01/02 03:13:36;;;;;;;15.63;13.90;;;;;;;;;;5050303;28;20495;-76
2022/01/02 03:16:03;;;;;;;16.87;15.17;;;;;;;;;;5050306;28;20468;-75
2022/01/02 03:18:30;;;;;;;17.07;15.37;;;;;;;;;;5050222;28;20446;-75
2022/01/02 03:20:57;;;;;;;17.70;15.83;;;;;;;;;;5050096;28;20528;-76
2022/01/02 03:23:25;;;;;;;15.47;14.00;;;;;;;;;;5049966;28;20461;-76
2022/01/02 03:25:52;;;;;;;16.50;14.80;;;;;;;;;;5050292;28;20474;-76
2022/01/02 03:28:20;;;;;;;14.73;13.33;;;;;;;;;;5049996;28;20442;-76
2022/01/02 03:30:47;;;;;;;19.27;14.17;;;;;;;;;;5050126;28;20481;-77
2022/01/02 03:33:14;;;;;;;16.90;15.20;;;;;;;;;;5049822;28;20446;-77
2022/01/02 03:35:41;;;;;;;16.63;14.47;;;;;;;;;;5050019;28;20888;-76
2022/01/02 03:38:09;;;;;;;15.20;13.73;;;;;;;;;;5050058;28;20442;-75
2022/01/02 03:40:37;;;;;;;14.87;13.23;;;;;;;;;;5049905;28;20466;-76
2022/01/02 03:43:05;;;;;;;15.80;13.57;;;;;;;;;;5049575;28;20442;-77
2022/01/02 03:45:33;;;;;;;14.90;13.40;;;;;;;;;;5049578;28;20475;-75
2022/01/02 03:48:00;;;;;;;15.90;14.17;;;;;;;;;;5049662;28;20479;-76
2022/01/02 03:50:27;;;;;;;14.83;13.33;;;;;;;;;;5049605;28;20539;-76
2022/01/02 03:52:54;;;;;;;14.70;13.23;;;;;;;;;;5049469;28;20572;-76
2022/01/02 03:55:22;;;;;;;16.20;14.60;;;;;;;;;;5049443;28;20461;-78
2022/01/02 03:57:49;;;;;;;14.83;13.33;;;;;;;;;;5049480;28;21361;-76
2022/01/02 04:00:18;;;;;;;13.83;12.33;;;;;;;;;;5049501;28;20829;-77
2022/01/02 04:02:47;;;;;;;15.97;14.27;;;;;;;;;;5049422;28;20469;-76
2022/01/02 04:05:14;;;;;;;15.37;13.70;;;;;;;;;;5049464;28;20516;-76
2022/01/02 04:07:42;;;;;;;15.67;13.20;;;;;;;;;;5049434;28;20442;-76
2022/01/02 04:10:11;;;;;;;14.57;13.07;;;;;;;;;;5049798;28;20473;-77
2022/01/02 04:12:38;;;;;;;14.93;13.37;;;;;;;;;;5049642;28;20446;-77
2022/01/02 04:15:06;;;;;;;14.80;13.30;;;;;;;;;;5049709;28;20511;-76
2022/01/02 04:17:33;;;;;;;14.33;13.00;;;;;;;;;;5049304;28;20492;-75
2022/01/02 04:20:02;;;;;;;15.73;14.03;;;;;;;;;;5049748;28;20529;-75
2022/01/02 04:22:29;;;;;;;14.00;12.70;;;;;;;;;;5053536;28;20442;-77
2022/01/02 04:24:56;;;;;;;15.20;13.73;;;;;;;;;;5053223;28;21269;-76
2022/01/02 04:27:24;;;;;;;13.23;11.93;;;;;;;;;;5053572;28;20543;-76
2022/01/02 04:29:51;;;;;;;13.63;12.20;;;;;;;;;;5049865;28;20470;-77
2022/01/02 04:32:19;;;;;;;13.00;11.80;;;;;;;;;;5044968;28;20493;-77
2022/01/02 04:34:46;;;;;;;14.03;12.60;;;;;;;;;;5033369;28;20903;-76
2022/01/02 04:37:15;;;;;;;14.33;12.93;;;;;;;;;;5033631;28;20458;-77
2022/01/02 04:39:42;;;;;;;14.40;12.67;;;;;;;;;;5033939;28;20461;-76
2022/01/02 04:42:09;;;;;;;14.13;12.73;;;;;;;;;;5033920;28;20543;-75
2022/01/02 04:44:36;;;;;;;14.13;12.70;;;;;;;;;;5033742;28;20450;-76
2022/01/02 04:47:04;;;;;;;13.87;12.33;;;;;;;;;;5033517;28;20482;-76
2022/01/02 04:49:31;;;;;;;13.50;12.20;;;;;;;;;;5033861;28;20486;-76
2022/01/02 04:51:58;;;;;;;13.30;12.00;;;;;;;;;;5033761;28;21003;-76
2022/01/02 04:54:26;;;;;;;13.60;11.37;;;;;;;;;;5033752;28;20458;-75
2022/01/02 04:56:53;;;;;;;13.77;12.47;;;;;;;;;;5033729;28;20472;-76
2022/01/02 04:59:20;;;;;;;14.57;13.20;;;;;;;;;;5033636;28;20472;-76
2022/01/02 05:01:47;;;;;;;14.23;12.73;;;;;;;;;;5035751;28;20449;-78
2022/01/02 05:04:15;;;;;;;12.50;11.30;;;;;;;;;;5052436;28;20501;-77
2022/01/02 05:06:42;;;;;;;13.67;12.27;;;;;;;;;;5044893;28;20560;-76
2022/01/02 05:09:09;;;;;;;15.80;12.40;;;;;;;;;;5052856;28;20505;-75
2022/01/02 05:11:37;;;;;;;14.07;12.67;;;;;;;;;;5052847;28;20453;-75
2022/01/02 05:14:04;;;;;;;13.27;11.97;;;;;;;;;;5052691;28;20445;-75
2022/01/02 05:16:31;;;;;;;14.50;12.90;;;;;;;;;;5052615;28;20462;-75
2022/01/02 05:18:59;;;;;;;14.30;12.90;;;;;;;;;;5052592;28;20442;-74
2022/01/02 05:21:26;;;;;;;12.47;11.30;;;;;;;;;;5052472;28;20986;-74
2022/01/02 05:23:53;;;;;;;13.63;12.27;;;;;;;;;;5052383;28;20514;-74
2022/01/02 05:26:20;;;;;;;12.57;11.33;;;;;;;;;;5052593;28;20460;-75
2022/01/02 05:28:49;;;;;;;13.70;12.30;;;;;;;;;;5052482;28;20434;-77
2022/01/02 05:31:16;;;;;;;14.00;12.57;;;;;;;;;;5052087;28;20528;-76
2022/01/02 05:33:43;;;;;;;13.10;11.70;;;;;;;;;;5050994;28;20461;-74
2022/01/02 05:36:10;;;;;;;14.60;13.10;;;;;;;;;;5052250;28;20470;-75
2022/01/02 05:38:37;;;;;;;13.37;12.00;;;;;;;;;;5052190;28;20448;-76
2022/01/02 05:41:04;;;;;;;13.67;12.33;;;;;;;;;;5051879;28;20501;-77
2022/01/02 05:43:31;;;;;;;13.57;12.37;;;;;;;;;;5051391;28;20499;-76
2022/01/02 05:46:05;;;;;;;12.53;11.23;;;;;;;;;;5051396;28;20469;-76
2022/01/02 05:48:32;;;;;;;13.70;12.40;;;;;;;;;;5052032;28;20482;-74
2022/01/02 05:51:00;;;;;;;14.37;12.93;;;;;;;;;;5051835;28;20573;-75
2022/01/02 05:53:28;;;;;;;15.13;13.43;;;;;;;;;;5051681;28;20495;-76
2022/01/02 05:55:55;;;;;;;13.93;12.60;;;;;;;;;;5051531;28;20970;-76
2022/01/02 05:58:22;;;;;;;14.30;12.60;;;;;;;;;;5051466;28;20441;-75
2022/01/02 06:00:49;;;;;;;13.80;12.40;;;;;;;;;;5051565;28;20450;-76
2022/01/02 06:03:17;;;;;;;13.17;11.87;;;;;;;;;;5051573;28;20476;-76
2022/01/02 06:05:44;;;;;;;13.00;11.70;;;;;;;;;;5051649;28;20519;-76
2022/01/02 06:08:11;;;;;;;13.33;11.93;;;;;;;;;;5051616;28;20445;-76
2022/01/02 06:10:38;;;;;;;13.43;12.03;;;;;;;;;;5051579;28;20478;-76
2022/01/02 06:13:05;;;;;;;12.93;11.70;;;;;;;;;;5050914;28;21209;-76
2022/01/02 06:15:32;;;;;;;12.13;11.00;;;;;;;;;;5051580;28;20488;-76
2022/01/02 06:17:59;;;;;;;12.97;11.77;;;;;;;;;;5051279;28;20949;-76
2022/01/02 06:20:28;;;;;;;12.50;11.17;;;;;;;;;;5051580;28;20445;-76
2022/01/02 06:22:55;;;;;;;12.83;11.53;;;;;;;;;;5051186;28;20446;-77
2022/01/02 06:25:23;;;;;;;11.90;10.80;;;;;;;;;;5050953;28;20445;-76
2022/01/02 06:27:50;;;;;;;12.53;11.23;;;;;;;;;;5050901;28;20955;-76
2022/01/02 06:30:17;;;;;;;12.70;11.50;;;;;;;;;;5050978;28;20987;-76
2022/01/02 06:32:44;;;;;;;12.13;10.97;;;;;;;;;;5051122;28;20454;-76
2022/01/02 06:35:11;;;;;;;12.80;11.60;;;;;;;;;;5051169;28;20472;-77
2022/01/02 06:37:39;;;;;;;12.83;11.60;;;;;;;;;;5050832;28;20511;-75
2022/01/02 06:40:07;;;;;;;89.10;54.73;;;;;;;;;;5051135;28;20442;-76
2022/01/02 06:42:34;;;;;;;24.87;20.03;;;;;;;;;;5050605;28;20918;-76
2022/01/02 06:45:01;;;;;;;13.80;12.50;;;;;;;;;;5050800;28;20510;-76
2022/01/02 06:47:28;;;;;;;13.77;12.00;;;;;;;;;;5050460;28;20553;-77
2022/01/02 06:49:55;;;;;;;12.13;11.00;;;;;;;;;;5050791;28;20891;-76
2022/01/02 06:52:22;;;;;;;13.13;11.93;;;;;;;;;;5050695;28;20449;-76
2022/01/02 06:54:53;;;;;;;13.43;12.03;;;;;;;;;;5050229;28;20503;-76
2022/01/02 06:57:20;;;;;;;12.87;11.57;;;;;;;;;;5050629;28;20468;-77
2022/01/02 06:59:47;;;;;;;12.73;11.53;;;;;;;;;;5050751;28;21185;-76
2022/01/02 07:02:14;;;;;;;12.53;11.43;;;;;;;;;;5050892;28;20442;-76
2022/01/02 07:04:41;;;;;;;12.00;10.70;;;;;;;;;;5051396;28;20462;-77
2022/01/02 07:07:09;;;;;;;12.07;10.90;;;;;;;;;;5051335;28;20462;-76
2022/01/02 07:09:36;;;;;;;12.30;10.90;;;;;;;;;;5051853;28;20445;-75
2022/01/02 07:12:04;;;;;;;11.87;10.67;;;;;;;;;;5050644;28;20450;-76
2022/01/02 07:14:31;;;;;;;10.97;9.97;;;;;;;;;;5050263;28;20450;-76
2022/01/02 07:16:59;;;;;;;12.87;11.57;;;;;;;;;;5050129;28;20898;-77
2022/01/02 07:19:26;;;;;;;11.23;10.23;;;;;;;;;;5050032;28;20507;-77
2022/01/02 07:21:55;;;;;;;11.13;10.20;;;;;;;;;;5049630;28;20516;-76
2022/01/02 07:24:22;;;;;;;10.37;9.40;;;;;;;;;;5049991;28;20452;-76
2022/01/02 07:26:49;;;;;;;10.93;9.93;;;;;;;;;;5049968;28;20557;-75
2022/01/02 07:29:19;;;;;;;11.20;10.27;;;;;;;;;;5050101;28;20532;-76
2022/01/02 07:31:46;;;;;;;10.77;9.77;;;;;;;;;;5049744;28;20484;-76
2022/01/02 07:34:13;;;;;;;10.97;9.80;;;;;;;;;;5049557;28;20446;-75
2022/01/02 07:36:44;;;;;;;10.93;9.93;;;;;;;;;;5049623;28;21177;-77
2022/01/02 07:39:11;;;;;;;11.13;10.07;;;;;;;;;;5050069;28;20831;-76
2022/01/02 07:41:38;;;;;;;11.67;10.57;;;;;;;;;;5049926;28;20442;-76
2022/01/02 07:44:05;;;;;;;11.20;10.10;;;;;;;;;;5049591;28;20449;-77
2022/01/02 07:46:34;;;;;;;9.57;8.67;;;;;;;;;;5049206;28;20480;-77
2022/01/02 07:49:01;;;;;;;11.43;10.33;;;;;;;;;;5049591;28;20446;-76
2022/01/02 07:51:28;;;;;;;32.10;27.87;;;;;;;;;;5049724;28;20478;-76
2022/01/02 07:53:55;;;;;;;80.53;57.43;;;;;;;;;;5049285;28;20595;-76
2022/01/02 07:56:22;;;;;;;55.60;42.73;;;;;;;;;;5049098;28;20523;-77
2022/01/02 07:58:49;;;;;;;13.40;12.10;;;;;;;;;;5049498;28;20446;-78
2022/01/02 08:01:16;;;;;;;11.83;10.60;;;;;;;;;;5049282;28;20434;-76
2022/01/02 08:03:44;;;;;;;11.93;10.87;;;;;;;;;;5049353;28;20454;-76
2022/01/02 08:06:11;;;;;;;12.50;9.73;;;;;;;;;;5049677;28;20470;-76
2022/01/02 08:08:38;;;;;;;10.93;9.90;;;;;;;;;;5050175;28;20515;-76
2022/01/02 08:11:05;;;;;;;10.63;9.73;;;;;;;;;;5058698;28;20482;-76
2022/01/02 08:13:32;;;;;;;10.70;9.60;;;;;;;;;;5066552;28;20511;-77
2022/01/02 08:16:00;;;;;;;13.00;11.17;;;;;;;;;;5063899;28;20522;-76
2022/01/02 08:18:27;;;;;;;10.80;9.80;;;;;;;;;;5064903;28;21097;-76
2022/01/02 08:20:57;;;;;;;10.07;8.90;;;;;;;;;;5065892;28;20438;-75
2022/01/02 08:23:24;;;;;;;10.83;9.77;;;;;;;;;;5055934;28;20438;-77
2022/01/02 08:25:51;;;;;;;10.30;9.07;;;;;;;;;;5046989;28;20478;-76
2022/01/02 08:28:19;;;;;;;10.37;9.37;;;;;;;;;;5053647;28;20450;-77
2022/01/02 08:30:47;;;;;;;9.93;9.03;;;;;;;;;;5051498;28;20481;-77
2022/01/02 08:33:14;;;;;;;9.27;8.37;;;;;;;;;;5050263;28;20488;-76
2022/01/02 08:35:41;;;;;;;10.10;9.13;;;;;;;;;;5049478;28;20511;-76
2022/01/02 08:38:09;;;;;;;9.17;8.37;;;;;;;;;;5049782;28;20438;-76
2022/01/02 08:40:37;;;;;;;9.67;8.77;;;;;;;;;;5049406;28;20453;-76
2022/01/02 08:43:04;;;;;;;9.50;8.60;;;;;;;;;;5049135;28;20541;-78
2022/01/02 08:45:31;;;;;;;9.00;8.20;;;;;;;;;;5049113;28;20868;-76
2022/01/02 08:47:58;;;;;;;8.93;8.17;;;;;;;;;;5049076;28;20511;-76
2022/01/02 08:50:25;;;;;;;9.70;8.80;;;;;;;;;;5049410;28;20786;-76
2022/01/02 08:52:52;;;;;;;9.93;8.97;;;;;;;;;;5049112;28;20446;-77
2022/01/02 08:55:20;;;;;;;9.73;8.83;;;;;;;;;;5049110;28;20496;-78
2022/01/02 08:57:48;;;;;;;9.20;8.30;;;;;;;;;;5049297;28;20475;-77
2022/01/02 09:00:15;;;;;;;9.90;8.90;;;;;;;;;;5049854;28;20941;-75
2022/01/02 09:02:42;;;;;;;9.10;8.30;;;;;;;;;;5049224;28;20572;-77
2022/01/02 09:05:09;;;;;;;8.80;8.07;;;;;;;;;;5049474;28;20507;-77
2022/01/02 09:07:36;;;;;;;9.97;8.97;;;;;;;;;;5050653;28;20489;-77
2022/01/02 09:10:04;;;;;;;9.03;8.30;;;;;;;;;;5049976;28;20531;-77
2022/01/02 09:12:33;;;;;;;12.80;11.40;;;;;;;;;;5039954;28;20489;-76
2022/01/02 09:15:00;;;;;;;9.67;8.87;;;;;;;;;;5047373;28;20529;-76
2022/01/02 09:17:27;;;;;;;10.20;9.10;;;;;;;;;;5052742;28;20462;-77
2022/01/02 09:19:56;;;;;;;8.23;7.53;;;;;;;;;;5054410;28;20445;-76
2022/01/02 09:22:23;;;;;;;9.03;8.23;;;;;;;;;;5052574;28;21128;-77
2022/01/02 09:24:52;;;;;;;8.73;7.93;;;;;;;;;;5051646;28;20512;-77
2022/01/02 09:27:19;;;;;;;9.63;8.63;;;;;;;;;;5052475;28;20501;-78
2022/01/02 09:29:47;;;;;;;9.20;8.40;;;;;;;;;;5052466;28;20442;-76
2022/01/02 09:32:14;;;;;;;8.80;8.00;;;;;;;;;;5052523;28;20486;-77
2022/01/02 09:34:41;;;;;;;8.10;7.33;;;;;;;;;;5051910;28;20457;-76
2022/01/02 09:37:08;;;;;;;8.47;7.77;;;;;;;;;;5051871;28;20473;-78
2022/01/02 09:39:36;;;;;;;9.47;8.57;;;;;;;;;;5051973;28;20453;-76
2022/01/02 09:42:03;;;;;;;7.97;7.27;;;;;;;;;;5051958;28;20449;-77
2022/01/02 09:44:30;;;;;;;9.50;8.03;;;;;;;;;;5052038;28;20504;-77
2022/01/02 09:46:59;;;;;;;8.50;7.67;;;;;;;;;;5051813;28;21022;-77
2022/01/02 09:49:26;;;;;;;8.57;7.80;;;;;;;;;;5052381;28;20442;-76
2022/01/02 09:51:53;;;;;;;9.37;8.47;;;;;;;;;;5051789;28;20504;-79
2022/01/02 09:54:20;;;;;;;8.70;7.90;;;;;;;;;;5051600;28;20809;-77
2022/01/02 09:56:47;;;;;;;9.10;8.30;;;;;;;;;;5051884;28;20474;-76
2022/01/02 09:59:14;;;;;;;11.13;8.47;;;;;;;;;;5051699;28;21296;-78
2022/01/02 10:01:42;;;;;;;8.77;8.07;;;;;;;;;;5051860;28;20454;-77
2022/01/02 10:04:11;;;;;;;8.37;7.57;;;;;;;;;;5051825;28;20450;-77
2022/01/02 10:06:40;;;;;;;10.40;9.50;;;;;;;;;;5051686;28;20473;-77
2022/01/02 10:09:10;;;;;;;9.67;8.77;;;;;;;;;;5051455;28;20956;-77
2022/01/02 10:11:40;;;;;;;10.10;9.10;;;;;;;;;;5040624;28;20470;-78
2022/01/02 10:14:07;;;;;;;10.80;9.80;;;;;;;;;;5031570;28;20439;-77
2022/01/02 10:16:35;;;;;;;9.20;8.30;;;;;;;;;;5047929;28;20488;-77
2022/01/02 10:19:04;;;;;;;9.43;8.63;;;;;;;;;;5031337;28;20932;-78
2022/01/02 10:21:34;;;;;;;10.53;9.10;;;;;;;;;;5042048;28;20435;-77
2022/01/02 10:24:11;;;;;;;10.30;9.30;;;;;;;;;;5051590;28;20442;-77
2022/01/02 10:26:38;;;;;;;9.30;8.50;;;;;;;;;;5051205;28;20874;-77
2022/01/02 10:29:11;;;;;;;9.20;8.40;;;;;;;;;;5044879;28;20452;-76
2022/01/02 10:31:38;;;;;;;9.37;8.57;;;;;;;;;;5049193;28;20466;-75
2022/01/02 10:34:05;;;;;;;8.07;7.47;;;;;;;;;;5032810;28;20615;-76
2022/01/02 10:36:35;;;;;;;9.03;8.13;;;;;;;;;;5051281;28;20981;-76
2022/01/02 10:39:03;;;;;;;8.90;8.10;;;;;;;;;;5052838;28;20922;-76
2022/01/02 10:41:33;;;;;;;9.70;8.90;;;;;;;;;;5053191;28;20438;-76
2022/01/02 10:44:15;;;;;;;9.73;8.83;;;;;;;;;;5053256;28;20450;-76
2022/01/02 10:46:42;;;;;;;9.80;8.97;;;;;;;;;;5044052;28;20473;-76
2022/01/02 10:49:09;;;;;;;10.63;9.63;;;;;;;;;;5037573;28;20443;-76
2022/01/02 10:51:37;;;;;;;10.47;9.47;;;;;;;;;;5043029;28;20477;-77
2022/01/02 10:54:04;;;;;;;9.07;8.20;;;;;;;;;;5051953;28;20863;-77
2022/01/02 10:56:31;;;;;;;9.63;8.77;;;;;;;;;;5049262;28;20898;-77
2022/01/02 10:58:59;;;;;;;9.60;8.70;;;;;;;;;;5051742;28;20199;-76
2022/01/02 11:01:26;;;;;;;9.97;9.07;;;;;;;;;;5049480;28;20438;-76
2022/01/02 11:03:53;;;;;;;9.10;8.30;;;;;;;;;;5051558;28;20442;-77
2022/01/02 11:06:23;;;;;;;10.00;8.93;;;;;;;;;;5051305;28;20889;-76
2022/01/02 11:08:51;;;;;;;10.77;9.63;;;;;;;;;;5047906;28;20432;-76
2022/01/02 11:11:21;;;;;;;9.80;8.90;;;;;;;;;;5032659;28;20490;-75
2022/01/02 11:13:48;;;;;;;9.40;8.50;;;;;;;;;;5032130;28;20450;-76
2022/01/02 11:16:15;;;;;;;8.60;7.90;;;;;;;;;;5032272;28;20466;-77
2022/01/02 11:18:42;;;;;;;9.43;8.50;;;;;;;;;;5032341;28;20508;-75
2022/01/02 11:21:12;;;;;;;8.90;8.20;;;;;;;;;;5031997;28;20497;-76
2022/01/02 11:23:45;;;;;;;9.60;8.70;;;;;;;;;;5044047;28;20473;-76
2022/01/02 11:26:15;;;;;;;9.30;8.40;;;;;;;;;;5051836;28;20463;-76
2022/01/02 11:28:43;;;;;;;9.20;8.40;;;;;;;;;;5052088;28;20445;-77
2022/01/02 11:31:11;;;;;;;8.90;8.20;;;;;;;;;;5051335;28;20819;-76
2022/01/02 11:33:40;;;;;;;10.87;8.40;;;;;;;;;;5051180;28;20523;-75
2022/01/02 11:36:24;;;;;;;9.37;8.53;;;;;;;;;;5051302;28;20509;-75
2022/01/02 11:38:58;;;;;;;9.37;8.57;;;;;;;;;;5044876;28;20831;-77
2022/01/02 11:41:36;;;;;;;9.30;8.40;;;;;;;;;;5051168;28;21317;-76
2022/01/02 11:44:03;;;;;;;10.30;9.30;;;;;;;;;;5050946;28;20438;-76
2022/01/02 11:46:30;;;;;;;10.27;9.20;;;;;;;;;;5035339;28;21004;-77
2022/01/02 11:49:15;;;;;;;9.10;8.30;;;;;;;;;;5051338;28;20945;-78
2022/01/02 11:52:00;;;;;;;9.93;8.63;;;;;;;;;;5050546;28;20473;-77
2022/01/02 11:54:46;;;;;;;10.67;9.60;;;;;;;;;;5051407;28;20440;-77
2022/01/02 11:57:32;;;;;;;9.70;8.80;;;;;;;;;;5051197;28;20502;-76
2022/01/02 12:00:00;;;;;;;10.90;9.23;;;;;;;;;;5045126;28;20458;-76
2022/01/02 12:02:37;;;;;;;10.90;9.77;;;;;;;;;;5040937;28;20434;-76
2022/01/02 12:05:12;;;;;;;10.37;9.47;;;;;;;;;;5051347;28;20457;-76
2022/01/02 12:07:53;;;;;;;11.27;10.27;;;;;;;;;;5048933;28;20473;-76
2022/01/02 12:10:30;;;;;;;13.00;11.07;;;;;;;;;;5051084;28;20591;-76
2022/01/02 12:13:16;;;;;;;13.10;11.80;;;;;;;;;;5042565;28;21030;-77
2022/01/02 12:16:02;;;;;;;12.00;10.83;;;;;;;;;;5031352;28;20466;-76
2022/01/02 12:18:31;;;;;;;12.40;11.10;;;;;;;;;;5031351;28;20934;-76
2022/01/02 12:21:11;;;;;;;10.83;9.80;;;;;;;;;;5031165;28;20516;-77
2022/01/02 12:23:53;;;;;;;11.20;10.20;;;;;;;;;;5031045;28;20439;-77
2022/01/02 12:26:21;;;;;;;10.40;9.30;;;;;;;;;;5031064;28;20469;-76
2022/01/02 12:28:56;;;;;;;10.30;9.40;;;;;;;;;;5031398;28;20450;-76
2022/01/02 12:31:23;;;;;;;9.53;8.33;;;;;;;;;;5031158;28;20529;-77
2022/01/02 12:33:52;;;;;;;8.67;7.13;;;;;;;;;;5031480;28;20470;-78
2022/01/02 12:36:20;;;;;;;5.60;5.10;;;;;;;;;;5031326;28;20466;-77
2022/01/02 12:38:48;;;;;;;3.87;3.57;;;;;;;;;;5031472;28;20439;-77
2022/01/02 12:41:15;;;;;;;3.30;3.00;;;;;;;;;;5032129;28;20470;-77
2022/01/02 12:43:50;;;;;;;2.97;2.77;;;;;;;;;;5035054;28;20816;-77
2022/01/02 12:46:31;;;;;;;2.13;2.03;;;;;;;;;;5035121;28;20474;-76
2022/01/02 12:49:00;;;;;;;2.07;1.97;;;;;;;;;;5034925;28;20455;-77
2022/01/02 12:51:30;;;;;;;2.10;2.00;;;;;;;;;;5035194;28;20450;-76
2022/01/02 12:54:04;;;;;;;1.90;1.70;;;;;;;;;;5035129;28;20489;-76
2022/01/02 12:56:32;;;;;;;6.47;2.80;;;;;;;;;;5034870;28;20474;-77
2022/01/02 12:59:12;;;;;;;2.20;2.10;;;;;;;;;;5034538;28;20859;-78
2022/01/02 13:01:48;;;;;;;2.17;1.97;;;;;;;;;;5035459;28;20434;-77
2022/01/02 13:04:17;;;;;;;2.33;1.90;;;;;;;;;;5056434;28;20491;-77
2022/01/02 13:06:45;;;;;;;1.83;1.73;;;;;;;;;;5067332;28;20465;-76
2022/01/02 13:09:12;;;;;;;3.60;2.00;;;;;;;;;;5078065;28;20446;-77
2022/01/02 13:11:39;;;;;;;2.23;2.03;;;;;;;;;;5079576;28;20433;-76
2022/01/02 13:14:06;;;;;;;3.43;2.20;;;;;;;;;;5080137;28;20403;-76
2022/01/02 13:16:34;;;;;;;2.53;2.33;;;;;;;;;;5080195;28;20442;-77
2022/01/02 13:19:01;;;;;;;2.97;2.17;;;;;;;;;;5079897;28;20480;-77
2022/01/02 13:21:30;;;;;;;2.37;2.17;;;;;;;;;;5080040;28;20425;-77
2022/01/02 13:24:17;;;;;;;4.00;2.10;;;;;;;;;;5079197;28;20438;-77
2022/01/02 13:26:44;;;;;;;2.27;2.07;;;;;;;;;;5079187;28;20458;-77
2022/01/02 13:29:11;;;;;;;3.00;2.20;;;;;;;;;;5078981;28;20438;-78
2022/01/02 13:31:38;;;;;;;2.13;2.03;;;;;;;;;;5078771;28;20430;-77
2022/01/02 13:34:08;;;;;;;2.30;2.10;;;;;;;;;;5078908;28;20426;-77
2022/01/02 13:36:37;;;;;;;1.80;1.70;;;;;;;;;;5079120;28;20449;-77
2022/01/02 13:39:04;;;;;;;3.90;2.30;;;;;;;;;;5078220;28;20468;-76
2022/01/02 13:41:35;;;;;;;2.20;2.00;;;;;;;;;;5077846;28;20510;-77
2022/01/02 13:44:14;;;;;;;2.20;2.00;;;;;;;;;;5078409;28;20428;-77
2022/01/02 13:46:50;;;;;;;2.30;2.10;;;;;;;;;;5070272;28;20519;-77
2022/01/02 13:49:32;;;;;;;2.20;2.10;;;;;;;;;;5053557;28;20452;-76
2022/01/02 13:52:04;;;;;;;2.23;2.03;;;;;;;;;;5053223;28;20953;-76
2022/01/02 13:54:31;;;;;;;2.40;1.97;;;;;;;;;;5052837;28;20426;-76
2022/01/02 13:56:58;;;;;;;1.93;1.83;;;;;;;;;;5053244;28;20462;-76
2022/01/02 13:59:25;;;;;;;3.90;1.80;;;;;;;;;;5053324;28;20450;-77
2022/01/02 14:01:52;;;;;;;4.03;2.33;;;;;;;;;;5052972;28;20520;-77
2022/01/02 14:04:20;;;;;;;6.73;3.20;;;;;;;;;;5033084;28;20926;-76
2022/01/02 14:06:47;;;;;;;2.10;2.00;;;;;;;;;;5033257;28;21152;-76
2022/01/02 14:09:16;;;;;;;2.37;2.27;;;;;;;;;;5033308;28;20446;-76
2022/01/02 14:11:46;;;;;;;3.27;2.30;;;;;;;;;;5033321;28;20443;-77
2022/01/02 14:14:17;;;;;;;2.43;2.13;;;;;;;;;;5032878;28;20489;-76
2022/01/02 14:17:01;;;;;;;1.90;1.80;;;;;;;;;;5032949;28;20490;-76
2022/01/02 14:19:28;;;;;;;2.17;2.07;;;;;;;;;;5033301;28;20461;-77
2022/01/02 14:21:55;;;;;;;2.60;2.40;;;;;;;;;;5033629;28;20470;-76
2022/01/02 14:24:24;;;;;;;2.20;2.10;;;;;;;;;;5032973;28;20466;-78
2022/01/02 14:26:51;;;;;;;3.77;2.20;;;;;;;;;;5032817;28;20471;-76
2022/01/02 14:29:18;;;;;;;2.23;2.03;;;;;;;;;;5033116;28;20451;-78
2022/01/02 14:31:45;;;;;;;2.40;2.20;;;;;;;;;;5033329;28;20492;-76
2022/01/02 14:34:13;;;;;;;2.20;2.10;;;;;;;;;;5032654;28;20494;-77
2022/01/02 14:36:40;;;;;;;2.10;2.00;;;;;;;;;;5032686;28;20941;-77
2022/01/02 14:39:08;;;;;;;2.80;2.60;;;;;;;;;;5032731;28;20466;-76
2022/01/02 14:41:38;;;;;;;2.97;2.20;;;;;;;;;;5032674;28;20453;-76